createdAt,value
2023-04-18T00:00:06.327Z,12.08
2023-04-18T00:02:33.933Z,12.07
2023-04-18T00:05:00.402Z,11.95
2023-04-18T00:07:28.094Z,11.94
2023-04-18T00:09:54.830Z,12.02
2023-04-18T00:12:21.200Z,12.11
2023-04-18T00:14:50.433Z,12.13
2023-04-18T00:17:16.862Z,12.09
2023-04-18T00:19:43.360Z,12.08
2023-04-18T00:22:13.266Z,12.03
2023-04-18T00:24:40.036Z,12.13
2023-04-18T00:27:06.456Z,12.19
2023-04-18T00:29:32.989Z,12.21
2023-04-18T00:31:59.358Z,12.26
2023-04-18T00:34:26.549Z,12.19
2023-04-18T00:36:54.047Z,12.02
2023-04-18T00:39:22.343Z,11.93
2023-04-18T00:41:48.700Z,11.99
2023-04-18T00:44:15.818Z,11.92
2023-04-18T00:46:42.859Z,11.91
2023-04-18T00:49:09.673Z,11.89
2023-04-18T00:51:36.162Z,11.94
2023-04-18T00:54:03.593Z,11.83
2023-04-18T00:56:30.026Z,11.90
2023-04-18T00:58:57.847Z,12.00
2023-04-18T01:01:24.306Z,11.92
2023-04-18T01:03:51.147Z,11.78
2023-04-18T01:06:17.885Z,11.78
2023-04-18T01:08:45.088Z,11.73
2023-04-18T01:11:11.482Z,11.69
2023-04-18T01:13:37.854Z,11.75
2023-04-18T01:16:04.497Z,11.86
2023-04-18T01:18:31.593Z,11.86
2023-04-18T01:21:00.490Z,11.93
2023-04-18T01:23:27.766Z,12.06
2023-04-18T01:25:54.083Z,11.97
2023-04-18T01:28:24.153Z,11.92
2023-04-18T01:30:50.519Z,11.93
2023-04-18T01:33:17.069Z,11.76
2023-04-18T01:35:43.417Z,11.61
2023-04-18T01:38:09.862Z,11.62
2023-04-18T01:40:36.294Z,11.67
2023-04-18T01:43:03.237Z,11.58
2023-04-18T01:45:29.734Z,11.71
2023-04-18T01:47:56.884Z,11.82
2023-04-18T01:50:23.327Z,11.91
2023-04-18T01:52:49.867Z,11.99
2023-04-18T01:55:16.248Z,11.99
2023-04-18T01:57:42.728Z,11.91
2023-04-18T02:00:09.375Z,11.91
2023-04-18T02:02:35.909Z,11.93
2023-04-18T02:05:02.530Z,11.82
2023-04-18T02:07:29.117Z,11.75
2023-04-18T02:09:56.628Z,11.72
2023-04-18T02:12:23.087Z,11.78
2023-04-18T02:14:51.780Z,11.76
2023-04-18T02:17:19.257Z,11.78
2023-04-18T02:19:59.688Z,11.89
2023-04-18T02:22:28.508Z,11.71
2023-04-18T02:24:54.906Z,11.73
2023-04-18T02:27:21.297Z,11.79
2023-04-18T02:29:47.631Z,11.88
2023-04-18T02:32:13.967Z,11.91
2023-04-18T02:34:40.332Z,11.85
2023-04-18T02:37:06.679Z,11.72
2023-04-18T02:39:33.038Z,11.57
2023-04-18T02:41:59.426Z,11.39
2023-04-18T02:44:26.681Z,11.43
2023-04-18T02:46:53.118Z,11.53
2023-04-18T02:49:20.300Z,11.58
2023-04-18T02:51:46.760Z,11.67
2023-04-18T02:54:13.464Z,11.74
2023-04-18T02:56:40.283Z,11.75
2023-04-18T02:59:07.254Z,11.77
2023-04-18T03:01:34.107Z,11.74
2023-04-18T03:04:00.573Z,11.73
2023-04-18T03:06:28.462Z,11.74
2023-04-18T03:08:57.576Z,11.75
2023-04-18T03:11:24.001Z,11.79
2023-04-18T03:13:50.685Z,11.83
2023-04-18T03:16:17.681Z,11.87
2023-04-18T03:18:44.082Z,11.88
2023-04-18T03:21:11.432Z,11.82
2023-04-18T03:23:37.931Z,11.81
2023-04-18T03:26:05.617Z,11.88
2023-04-18T03:28:31.967Z,11.85
2023-04-18T03:30:59.094Z,11.78
2023-04-18T03:33:26.638Z,11.71
2023-04-18T03:35:53.148Z,11.72
2023-04-18T03:38:19.653Z,11.77
2023-04-18T03:40:46.301Z,11.77
2023-04-18T03:43:13.057Z,11.66
2023-04-18T03:45:39.475Z,11.70
2023-04-18T03:48:07.152Z,11.72
2023-04-18T03:50:33.759Z,11.71
2023-04-18T03:53:01.466Z,11.63
2023-04-18T03:55:28.152Z,11.59
2023-04-18T03:57:54.479Z,11.66
2023-04-18T04:00:20.846Z,11.60
2023-04-18T04:02:59.786Z,11.52
2023-04-18T04:05:27.391Z,11.50
2023-04-18T04:07:54.448Z,11.40
2023-04-18T04:10:20.874Z,11.13
2023-04-18T04:12:47.231Z,11.05
2023-04-18T04:15:13.582Z,11.19
2023-04-18T04:17:41.472Z,11.31
2023-04-18T04:20:09.316Z,11.39
2023-04-18T04:22:36.690Z,11.51
2023-04-18T04:25:04.597Z,11.54
2023-04-18T04:27:30.941Z,11.58
2023-04-18T04:29:57.824Z,11.46
2023-04-18T04:32:25.284Z,11.46
2023-04-18T04:34:51.851Z,11.45
2023-04-18T04:37:18.709Z,11.42
2023-04-18T04:39:46.240Z,11.36
2023-04-18T04:42:13.420Z,11.31
2023-04-18T04:44:41.633Z,11.31
2023-04-18T04:47:08.206Z,11.33
2023-04-18T04:49:34.532Z,11.40
2023-04-18T04:52:02.722Z,11.38
2023-04-18T04:54:29.278Z,11.34
2023-04-18T04:57:12.484Z,11.39
2023-04-18T04:59:39.789Z,11.44
2023-04-18T05:02:07.562Z,11.50
2023-04-18T05:04:34.167Z,11.50
2023-04-18T05:07:00.617Z,11.43
2023-04-18T05:09:29.092Z,11.38
2023-04-18T05:11:56.725Z,11.38
2023-04-18T05:14:23.215Z,11.40
2023-04-18T05:16:49.700Z,11.50
2023-04-18T05:19:16.137Z,11.50
2023-04-18T05:21:42.573Z,11.42
2023-04-18T05:24:09.372Z,11.36
2023-04-18T05:26:35.712Z,11.26
2023-04-18T05:29:02.151Z,11.11
2023-04-18T05:31:29.648Z,11.06
2023-04-18T05:33:56.569Z,11.08
2023-04-18T05:36:23.186Z,11.18
2023-04-18T05:38:49.633Z,11.25
2023-04-18T05:41:16.038Z,11.33
2023-04-18T05:43:44.491Z,11.34
2023-04-18T05:46:14.805Z,11.31
2023-04-18T05:48:41.253Z,11.21
2023-04-18T05:51:07.814Z,11.09
2023-04-18T05:53:35.000Z,11.13
2023-04-18T05:56:02.236Z,11.11
2023-04-18T05:58:29.086Z,11.14
2023-04-18T06:00:56.737Z,11.15
2023-04-18T06:03:24.170Z,11.34
2023-04-18T06:05:50.915Z,11.48
2023-04-18T06:08:17.456Z,11.54
2023-04-18T06:10:43.811Z,11.62
2023-04-18T06:13:10.280Z,11.77
2023-04-18T06:15:36.659Z,11.82
2023-04-18T06:18:03.107Z,12.04
2023-04-18T06:20:29.678Z,12.15
2023-04-18T06:22:56.916Z,12.16
2023-04-18T06:25:24.107Z,12.00
2023-04-18T06:27:52.653Z,12.13
2023-04-18T06:30:21.898Z,12.04
2023-04-18T06:32:48.420Z,12.01
2023-04-18T06:35:15.304Z,12.00
2023-04-18T06:37:44.845Z,12.03
2023-04-18T06:40:11.972Z,11.99
2023-04-18T06:42:38.581Z,12.11
2023-04-18T06:45:06.616Z,12.21
2023-04-18T06:47:33.451Z,12.27
2023-04-18T06:50:02.687Z,12.38
2023-04-18T06:52:29.340Z,12.13
2023-04-18T06:54:56.435Z,12.16
2023-04-18T06:57:23.231Z,12.34
2023-04-18T06:59:49.704Z,12.67
2023-04-18T07:02:16.074Z,12.94
2023-04-18T07:04:42.663Z,13.22
2023-04-18T07:07:09.247Z,13.47
2023-04-18T07:09:35.592Z,13.67
2023-04-18T07:12:02.095Z,13.55
2023-04-18T07:14:28.563Z,13.57
2023-04-18T07:16:55.072Z,13.63
2023-04-18T07:19:21.664Z,13.52
2023-04-18T07:21:47.980Z,13.36
2023-04-18T07:24:14.689Z,13.63
2023-04-18T07:26:41.355Z,13.46
2023-04-18T07:29:07.693Z,13.60
2023-04-18T07:31:34.602Z,13.78
2023-04-18T07:34:01.052Z,13.88
2023-04-18T07:36:28.369Z,13.98
2023-04-18T07:38:54.679Z,14.06
2023-04-18T07:41:21.196Z,14.18
2023-04-18T07:43:47.526Z,14.20
2023-04-18T07:46:14.008Z,14.49
2023-04-18T07:48:41.211Z,14.67
2023-04-18T07:51:07.521Z,14.61
2023-04-18T07:53:34.048Z,14.69
2023-04-18T07:56:00.859Z,14.98
2023-04-18T07:58:27.763Z,15.14
2023-04-18T08:00:54.120Z,14.88
2023-04-18T08:03:20.906Z,15.29
2023-04-18T08:05:47.558Z,15.50
2023-04-18T08:08:13.949Z,15.25
2023-04-18T08:10:40.480Z,15.22
2023-04-18T08:13:06.956Z,15.25
2023-04-18T08:15:33.420Z,15.30
2023-04-18T08:18:01.062Z,15.10
2023-04-18T08:20:27.757Z,15.13
2023-04-18T08:23:05.654Z,15.14
2023-04-18T08:25:33.273Z,15.31
2023-04-18T08:27:59.917Z,15.39
2023-04-18T08:30:26.670Z,14.98
2023-04-18T08:32:53.203Z,15.11
2023-04-18T08:35:19.750Z,15.28
2023-04-18T08:37:46.162Z,15.51
2023-04-18T08:40:12.611Z,15.51
2023-04-18T08:42:41.163Z,15.68
2023-04-18T08:45:09.149Z,15.64
2023-04-18T08:47:35.614Z,15.45
2023-04-18T08:50:02.142Z,15.72
2023-04-18T08:52:29.574Z,15.73
2023-04-18T08:54:57.711Z,15.59
2023-04-18T08:57:27.562Z,15.79
2023-04-18T08:59:54.383Z,15.80
2023-04-18T09:02:24.161Z,15.67
2023-04-18T09:04:53.519Z,15.80
2023-04-18T09:07:21.062Z,15.86
2023-04-18T09:09:48.610Z,15.90
2023-04-18T09:12:18.262Z,15.81
2023-04-18T09:15:09.469Z,15.78
2023-04-18T09:17:42.257Z,15.74
2023-04-18T09:20:12.253Z,15.94
2023-04-18T09:22:48.600Z,15.93
2023-04-18T09:25:34.951Z,15.87
2023-04-18T09:28:02.079Z,15.79
2023-04-18T09:30:29.701Z,15.75
2023-04-18T09:33:00.689Z,15.62
2023-04-18T09:35:27.888Z,15.58
2023-04-18T09:37:54.324Z,15.69
2023-04-18T09:40:21.169Z,15.77
2023-04-18T09:42:50.695Z,15.73
2023-04-18T09:45:17.079Z,15.88
2023-04-18T09:47:43.597Z,16.13
2023-04-18T09:50:10.398Z,16.41
2023-04-18T09:52:37.640Z,16.42
2023-04-18T09:55:05.194Z,16.65
2023-04-18T09:57:32.321Z,16.77
2023-04-18T09:59:58.960Z,16.58
2023-04-18T10:02:27.566Z,16.75
2023-04-18T10:04:54.343Z,16.73
2023-04-18T10:07:20.966Z,16.53
2023-04-18T10:09:49.106Z,16.60
2023-04-18T10:12:17.109Z,16.60
2023-04-18T10:14:43.777Z,16.75
2023-04-18T10:17:11.786Z,16.41
2023-04-18T10:19:41.218Z,16.36
2023-04-18T10:22:08.204Z,16.67
2023-04-18T10:24:53.219Z,16.57
2023-04-18T10:27:39.736Z,17.15
2023-04-18T10:30:08.982Z,17.48
2023-04-18T10:32:36.073Z,17.58
2023-04-18T10:35:02.426Z,17.82
2023-04-18T10:37:29.022Z,17.46
2023-04-18T10:40:00.363Z,17.53
2023-04-18T10:42:45.418Z,17.23
2023-04-18T10:45:18.666Z,16.93
2023-04-18T10:47:45.299Z,17.30
2023-04-18T10:50:12.116Z,17.51
2023-04-18T10:52:38.781Z,17.82
2023-04-18T10:55:16.584Z,17.71
2023-04-18T10:57:43.977Z,17.76
2023-04-18T11:00:14.396Z,17.76
2023-04-18T11:02:41.520Z,17.62
2023-04-18T11:05:09.075Z,17.69
2023-04-18T11:07:35.386Z,17.69
2023-04-18T11:10:02.272Z,17.84
2023-04-18T11:12:30.962Z,18.19
2023-04-18T11:14:58.805Z,18.42
2023-04-18T11:17:29.507Z,18.46
2023-04-18T11:20:13.526Z,18.23
2023-04-18T11:22:50.146Z,18.62
2023-04-18T11:25:17.564Z,18.59
2023-04-18T11:27:45.151Z,18.81
2023-04-18T11:30:12.514Z,19.19
2023-04-18T11:32:39.230Z,19.14
2023-04-18T11:35:06.492Z,19.48
2023-04-18T11:37:32.974Z,19.25
2023-04-18T11:39:59.824Z,19.61
2023-04-18T11:42:29.421Z,19.81
2023-04-18T11:44:56.555Z,19.83
2023-04-18T11:47:28.766Z,20.31
2023-04-18T11:50:05.770Z,20.93
2023-04-18T11:52:33.243Z,21.18
2023-04-18T11:55:14.921Z,20.07
2023-04-18T11:57:41.927Z,20.15
2023-04-18T12:00:12.256Z,20.24
2023-04-18T12:02:50.001Z,19.92
2023-04-18T12:05:30.421Z,20.29
2023-04-18T12:08:07.882Z,21.03
2023-04-18T12:10:35.909Z,21.61
2023-04-18T12:13:05.945Z,21.11
2023-04-18T12:15:33.768Z,21.26
2023-04-18T12:18:01.526Z,21.10
2023-04-18T12:20:38.809Z,21.59
2023-04-18T12:23:05.456Z,22.06
2023-04-18T12:25:32.159Z,21.77
2023-04-18T12:27:58.671Z,21.70
2023-04-18T12:30:29.350Z,21.77
2023-04-18T12:32:58.159Z,21.93
2023-04-18T12:35:25.458Z,21.68
2023-04-18T12:37:52.989Z,22.12
2023-04-18T12:40:19.658Z,21.98
2023-04-18T12:42:46.769Z,22.09
2023-04-18T12:45:13.528Z,21.88
2023-04-18T12:47:40.800Z,21.39
2023-04-18T12:50:11.305Z,21.52
2023-04-18T12:52:39.094Z,21.73
2023-04-18T12:55:06.059Z,22.08
2023-04-18T12:57:32.551Z,21.41
2023-04-18T12:59:59.553Z,21.71
2023-04-18T13:02:26.706Z,21.92
2023-04-18T13:04:53.456Z,22.22
2023-04-18T13:07:19.865Z,22.62
2023-04-18T13:09:46.534Z,22.92
2023-04-18T13:12:13.068Z,23.69
2023-04-18T13:14:39.782Z,24.02
2023-04-18T13:17:10.914Z,23.80
2023-04-18T13:19:37.336Z,24.42
2023-04-18T13:22:05.187Z,25.33
2023-04-18T13:24:32.002Z,24.14
2023-04-18T13:26:59.032Z,23.53
2023-04-18T13:29:26.548Z,23.31
2023-04-18T13:31:52.952Z,23.44
2023-04-18T13:34:19.342Z,23.86
2023-04-18T13:36:45.707Z,23.84
2023-04-18T13:39:12.609Z,23.83
2023-04-18T13:41:39.285Z,23.91
2023-04-18T13:44:05.667Z,23.78
2023-04-18T13:46:32.142Z,23.82
2023-04-18T13:48:58.563Z,23.62
2023-04-18T13:51:25.034Z,23.01
2023-04-18T13:53:51.741Z,23.54
2023-04-18T13:56:18.328Z,24.61
2023-04-18T13:58:44.646Z,24.61
2023-04-18T14:01:11.970Z,24.87
2023-04-18T14:03:39.963Z,25.60
2023-04-18T14:06:07.909Z,25.15
2023-04-18T14:08:34.532Z,24.09
2023-04-18T14:11:00.928Z,24.08
2023-04-18T14:13:27.886Z,23.85
2023-04-18T14:15:54.446Z,24.07
2023-04-18T14:18:21.773Z,24.52
2023-04-18T14:20:48.605Z,24.15
2023-04-18T14:23:15.986Z,24.79
2023-04-18T14:25:42.777Z,25.03
2023-04-18T14:28:10.935Z,24.74
2023-04-18T14:30:37.764Z,24.48
2023-04-18T14:33:04.382Z,25.05
2023-04-18T14:35:31.109Z,24.80
2023-04-18T14:37:57.779Z,24.74
2023-04-18T14:40:32.113Z,24.28
2023-04-18T14:42:59.198Z,24.26
2023-04-18T14:45:26.405Z,24.66
2023-04-18T14:47:53.702Z,24.83
2023-04-18T14:50:20.616Z,25.32
2023-04-18T14:52:47.198Z,25.30
2023-04-18T14:55:13.609Z,24.85
2023-04-18T14:57:40.226Z,25.15
2023-04-18T15:00:09.856Z,25.39
2023-04-18T15:02:36.574Z,26.08
2023-04-18T15:05:14.536Z,25.97
2023-04-18T15:07:42.903Z,25.50
2023-04-18T15:10:12.805Z,25.08
2023-04-18T15:12:39.631Z,25.76
2023-04-18T15:15:06.704Z,26.60
2023-04-18T15:17:33.203Z,26.09
2023-04-18T15:19:59.856Z,25.35
2023-04-18T15:22:26.222Z,25.49
2023-04-18T15:24:52.562Z,26.14
2023-04-18T15:27:18.872Z,26.77
2023-04-18T15:29:45.459Z,26.78
2023-04-18T15:32:12.490Z,26.84
2023-04-18T15:34:38.915Z,26.83
2023-04-18T15:37:05.364Z,25.42
2023-04-18T15:39:31.718Z,25.13
2023-04-18T15:41:58.711Z,25.81
2023-04-18T15:44:25.261Z,26.76
2023-04-18T15:46:51.775Z,26.30
2023-04-18T15:49:18.232Z,26.26
2023-04-18T15:51:44.862Z,26.56
2023-04-18T15:54:11.320Z,26.75
2023-04-18T15:56:37.946Z,26.23
2023-04-18T15:59:07.554Z,26.47
2023-04-18T16:01:35.585Z,26.81
2023-04-18T16:04:02.309Z,26.30
2023-04-18T16:06:29.831Z,26.23
2023-04-18T16:08:56.293Z,25.54
2023-04-18T16:11:26.190Z,24.19
2023-04-18T16:13:53.132Z,23.25
2023-04-18T16:16:19.569Z,22.13
2023-04-18T16:18:45.999Z,21.49
2023-04-18T16:21:15.934Z,21.43
2023-04-18T16:23:43.124Z,21.25
2023-04-18T16:26:09.537Z,20.88
2023-04-18T16:28:37.717Z,20.53
2023-04-18T16:31:05.469Z,20.27
2023-04-18T16:33:31.975Z,20.08
2023-04-18T16:35:59.904Z,20.16
2023-04-18T16:38:28.109Z,20.12
2023-04-18T16:40:56.262Z,20.16
2023-04-18T16:43:23.741Z,20.09
2023-04-18T16:45:50.227Z,20.00
2023-04-18T16:48:16.795Z,19.88
2023-04-18T16:50:45.598Z,19.71
2023-04-18T16:53:12.087Z,19.36
2023-04-18T16:55:38.430Z,19.22
2023-04-18T16:58:04.890Z,18.99
2023-04-18T17:00:31.250Z,18.81
2023-04-18T17:02:58.596Z,18.75
2023-04-18T17:05:26.197Z,18.82
2023-04-18T17:07:52.719Z,18.59
2023-04-18T17:10:19.308Z,18.54
2023-04-18T17:12:48.863Z,18.57
2023-04-18T17:15:18.720Z,18.47
2023-04-18T17:17:45.583Z,18.33
2023-04-18T17:20:12.493Z,18.31
2023-04-18T17:22:38.845Z,18.14
2023-04-18T17:25:06.119Z,18.22
2023-04-18T17:27:32.619Z,18.19
2023-04-18T17:29:58.991Z,18.08
2023-04-18T17:32:25.459Z,18.09
2023-04-18T17:34:52.154Z,18.15
2023-04-18T17:37:19.973Z,18.17
2023-04-18T17:39:46.336Z,18.17
2023-04-18T17:42:12.706Z,18.15
2023-04-18T17:44:39.738Z,18.14
2023-04-18T17:47:06.658Z,18.15
2023-04-18T17:49:36.131Z,18.18
2023-04-18T17:52:02.847Z,18.12
2023-04-18T17:54:29.287Z,18.09
2023-04-18T17:56:55.879Z,18.20
2023-04-18T17:59:22.236Z,18.07
2023-04-18T18:01:48.687Z,17.97
2023-04-18T18:04:15.867Z,17.87
2023-04-18T18:06:42.483Z,17.99
2023-04-18T18:09:09.032Z,17.98
2023-04-18T18:11:35.631Z,17.83
2023-04-18T18:14:02.020Z,17.67
2023-04-18T18:16:28.741Z,17.66
2023-04-18T18:18:55.205Z,17.83
2023-04-18T18:21:21.580Z,17.81
2023-04-18T18:23:48.307Z,17.80
2023-04-18T18:26:14.958Z,17.77
2023-04-18T18:28:41.373Z,17.70
2023-04-18T18:31:07.851Z,17.66
2023-04-18T18:33:34.368Z,17.74
2023-04-18T18:36:01.325Z,17.58
2023-04-18T18:38:28.640Z,17.48
2023-04-18T18:40:55.051Z,17.55
2023-04-18T18:46:35.868Z,17.38
2023-04-18T18:49:02.258Z,17.27
2023-04-18T18:51:29.165Z,17.20
2023-04-18T18:53:57.579Z,17.06
2023-04-18T18:56:23.975Z,16.96
2023-04-18T18:58:50.316Z,16.93
2023-04-18T19:01:24.659Z,17.06
2023-04-18T19:03:51.604Z,17.12
2023-04-18T19:06:18.112Z,17.00
2023-04-18T19:08:45.090Z,16.95
2023-04-18T19:11:12.806Z,16.85
2023-04-18T19:13:39.541Z,16.93
2023-04-18T19:16:05.968Z,16.97
2023-04-18T19:18:32.859Z,16.78
2023-04-18T19:20:59.272Z,16.67
2023-04-18T19:23:28.637Z,16.67
2023-04-18T19:25:55.079Z,16.65
2023-04-18T19:28:22.846Z,16.54
2023-04-18T19:30:49.399Z,16.22
2023-04-18T19:33:16.682Z,16.29
2023-04-18T19:35:43.182Z,16.31
2023-04-18T19:38:09.610Z,16.30
2023-04-18T19:40:36.026Z,16.29
2023-04-18T19:43:02.723Z,16.31
2023-04-18T19:45:30.951Z,16.29
2023-04-18T19:47:58.828Z,16.19
2023-04-18T19:50:25.305Z,16.14
2023-04-18T19:52:51.870Z,16.21
2023-04-18T19:55:18.252Z,16.31
2023-04-18T19:57:44.647Z,16.35
2023-04-18T20:00:12.407Z,16.18
2023-04-18T20:02:39.935Z,16.15
2023-04-18T20:05:07.814Z,16.00
2023-04-18T20:07:34.786Z,15.91
2023-04-18T20:10:01.218Z,15.80
2023-04-18T20:12:28.565Z,15.73
2023-04-18T20:14:55.073Z,15.61
2023-04-18T20:17:21.644Z,15.46
2023-04-18T20:19:49.691Z,15.61
2023-04-18T20:22:16.558Z,15.59
2023-04-18T20:24:45.027Z,15.59
2023-04-18T20:27:11.469Z,15.67
2023-04-18T20:29:37.942Z,15.68
2023-04-18T20:32:04.415Z,15.63
2023-04-18T20:34:31.506Z,15.66
2023-04-18T20:37:00.013Z,15.63
2023-04-18T20:39:26.690Z,15.68
2023-04-18T20:41:57.954Z,15.71
2023-04-18T20:44:24.933Z,15.67
2023-04-18T20:46:54.850Z,15.68
2023-04-18T20:49:21.255Z,15.60
2023-04-18T20:51:47.663Z,15.49
2023-04-18T20:54:14.422Z,15.35
2023-04-18T20:56:41.089Z,15.35
2023-04-18T20:59:07.488Z,15.37
2023-04-18T21:01:35.552Z,15.46
2023-04-18T21:04:03.466Z,15.51
2023-04-18T21:06:29.997Z,15.38
2023-04-18T21:08:56.576Z,15.35
2023-04-18T21:11:23.842Z,15.27
2023-04-18T21:13:50.849Z,15.36
2023-04-18T21:16:17.321Z,15.38
2023-04-18T21:18:43.940Z,15.24
2023-04-18T21:21:10.553Z,15.24
2023-04-18T21:23:43.699Z,15.21
2023-04-18T21:26:13.543Z,15.22
2023-04-18T21:28:53.250Z,15.33
2023-04-18T21:31:20.022Z,15.40
2023-04-18T21:33:46.412Z,15.47
2023-04-18T21:36:12.777Z,15.42
2023-04-18T21:38:39.138Z,15.27
2023-04-18T21:41:10.215Z,15.11
2023-04-18T21:43:36.592Z,15.02
2023-04-18T21:46:03.093Z,14.94
2023-04-18T21:48:29.506Z,15.04
2023-04-18T21:50:56.346Z,15.05
2023-04-18T21:53:22.789Z,15.07
2023-04-18T21:55:49.096Z,15.04
2023-04-18T21:58:15.429Z,15.01
2023-04-18T22:00:42.005Z,15.00
2023-04-18T22:03:08.885Z,14.88
2023-04-18T22:05:37.074Z,14.96
2023-04-18T22:08:03.556Z,14.98
2023-04-18T22:10:30.044Z,15.07
2023-04-18T22:12:57.518Z,15.09
2023-04-18T22:15:27.110Z,14.99
2023-04-18T22:17:54.124Z,14.95
2023-04-18T22:20:21.581Z,14.92
2023-04-18T22:22:47.994Z,14.84
2023-04-18T22:25:14.471Z,14.86
2023-04-18T22:27:42.645Z,14.79
2023-04-18T22:30:09.462Z,14.82
2023-04-18T22:32:36.004Z,14.88
2023-04-18T22:35:03.289Z,14.93
2023-04-18T22:37:29.724Z,15.01
2023-04-18T22:39:56.073Z,14.98
2023-04-18T22:42:22.663Z,14.98
2023-04-18T22:44:49.146Z,14.92
2023-04-18T22:47:15.493Z,14.91
2023-04-18T22:49:42.019Z,14.82
2023-04-18T22:52:08.341Z,14.69
2023-04-18T22:54:39.105Z,14.58
2023-04-18T22:57:05.710Z,14.50
2023-04-18T22:59:32.340Z,14.46
2023-04-18T23:01:59.696Z,14.57
2023-04-18T23:04:29.944Z,14.73
2023-04-18T23:06:56.546Z,14.62
2023-04-18T23:09:23.051Z,14.58
2023-04-18T23:11:49.474Z,14.54
2023-04-18T23:14:16.035Z,14.51
2023-04-18T23:16:43.905Z,14.51
2023-04-18T23:19:10.608Z,14.41
2023-04-18T23:21:37.040Z,14.45
2023-04-18T23:24:03.431Z,14.55
2023-04-18T23:26:29.775Z,14.62
2023-04-18T23:28:56.269Z,14.66
2023-04-18T23:31:22.683Z,14.70
2023-04-18T23:33:49.444Z,14.67
2023-04-18T23:36:16.211Z,14.53
2023-04-18T23:38:42.818Z,14.32
2023-04-18T23:41:09.173Z,14.24
2023-04-18T23:43:35.716Z,14.16
2023-04-18T23:46:02.135Z,14.00
2023-04-18T23:48:29.495Z,13.96
2023-04-18T23:50:55.887Z,13.94
2023-04-18T23:53:22.389Z,13.85
2023-04-18T23:55:51.067Z,13.77
2023-04-18T23:58:17.712Z,13.66
